Time;durP1;ratioP1;P1;durP2;ratioP2;P2;SDS_P1;SDS_P2;PMS_P1;PMS_P2;Temp;Humidity;BMP_temperature;BMP_pressure;BME280_temperature;BME280_humidity;BME280_pressure;Samples;Min_cycle;Max_cycle;Signal;HPM_P1;HPM_P2
2023/05/12 05:51:25;;;;;;;3.95;3.33;;;;;;;;;;10606905;27;20493;-80
2023/05/12 05:56:26;;;;;;;3.22;2.85;;;;;;;;;;10610047;28;20027;-80
2023/05/12 06:01:28;;;;;;;;;;;;;;;;;;10597504;22;20410;-84
2023/05/12 06:06:30;;;;;;;5.10;2.95;;;;;;;;;;10518913;28;19905;-84
2023/05/12 06:11:31;;;;;;;4.45;3.95;;;;;;;;;;10518304;28;20025;-85
2023/05/12 06:16:38;;;;;;;5.80;3.88;;;;;;;;;;10520771;28;20028;-84
2023/05/12 06:21:39;;;;;;;3.53;3.05;;;;;;;;;;10507541;28;20028;-85
2023/05/12 06:26:40;;;;;;;4.85;3.50;;;;;;;;;;10504212;28;20020;-81
2023/05/12 06:31:41;;;;;;;3.80;3.13;;;;;;;;;;10500200;28;20027;-81
2023/05/12 06:36:45;;;;;;;2.90;2.60;;;;;;;;;;10501585;28;20036;-80
2023/05/12 06:41:48;;;;;;;4.47;2.80;;;;;;;;;;10505186;28;20036;-81
2023/05/12 06:46:55;;;;;;;6.47;5.40;;;;;;;;;;10501720;28;20025;-81
2023/05/12 06:52:30;;;;;;;4.97;2.95;;;;;;;;;;10500064;28;20506;-81
2023/05/12 06:57:54;;;;;;;3.47;2.80;;;;;;;;;;10474156;28;20065;-79
2023/05/12 07:02:55;;;;;;;6.10;2.30;;;;;;;;;;10490872;28;20024;-80
2023/05/12 07:07:56;;;;;;;3.60;2.28;;;;;;;;;;10518009;28;20025;-79
2023/05/12 07:12:57;;;;;;;3.03;2.55;;;;;;;;;;10520127;28;20051;-80
2023/05/12 07:17:58;;;;;;;3.72;2.17;;;;;;;;;;10532111;28;20039;-79
2023/05/12 07:23:12;;;;;;;3.03;2.53;;;;;;;;;;10509077;28;20494;-78
2023/05/12 07:28:14;;;;;;;5.07;4.25;;;;;;;;;;10496065;28;20478;-79
2023/05/12 07:33:15;;;;;;;4.30;2.70;;;;;;;;;;10495034;28;20120;-79
2023/05/12 07:38:16;;;;;;;5.13;3.90;;;;;;;;;;10499347;28;20504;-81
2023/05/12 07:43:41;;;;;;;8.80;7.30;;;;;;;;;;10540342;28;20044;-81
2023/05/12 07:48:57;;;;;;;10.38;8.63;;;;;;;;;;10524637;28;20064;-81
2023/05/12 07:54:03;;;;;;;15.07;13.25;;;;;;;;;;10497828;28;20385;-82
2023/05/12 07:59:06;;;;;;;11.25;10.13;;;;;;;;;;10481821;28;20033;-81
2023/05/12 08:04:11;;;;;;;12.15;10.90;;;;;;;;;;10499826;28;20553;-83
2023/05/12 08:09:12;;;;;;;17.60;15.70;;;;;;;;;;10497681;28;20108;-82
2023/05/12 08:14:14;;;;;;;9.00;7.75;;;;;;;;;;10495864;28;20020;-81
2023/05/12 08:19:18;;;;;;;10.93;9.82;;;;;;;;;;10499251;28;20433;-81
2023/05/12 08:24:24;;;;;;;12.07;10.60;;;;;;;;;;10499366;28;20023;-82
2023/05/12 08:29:25;;;;;;;12.23;11.02;;;;;;;;;;10498417;28;20531;-82
2023/05/12 08:34:26;;;;;;;11.43;10.32;;;;;;;;;;10480310;28;20036;-81
2023/05/12 08:39:32;;;;;;;6.45;4.70;;;;;;;;;;10496873;28;20025;-80
2023/05/12 08:44:36;;;;;;;5.07;4.38;;;;;;;;;;10498594;28;20021;-83
2023/05/12 08:49:39;;;;;;;6.90;5.85;;;;;;;;;;10495649;28;20174;-81
2023/05/12 08:54:41;;;;;;;14.50;12.40;;;;;;;;;;10499443;28;20054;-82
2023/05/12 08:59:43;;;;;;;5.05;4.43;;;;;;;;;;10502635;28;20155;-81
2023/05/12 09:04:44;;;;;;;7.18;5.65;;;;;;;;;;10508500;28;20531;-81
2023/05/12 09:09:47;;;;;;;7.25;4.30;;;;;;;;;;10509452;28;20021;-82
2023/05/12 09:14:53;;;;;;;4.93;4.43;;;;;;;;;;10501398;28;20115;-80
2023/05/12 09:19:54;;;;;;;3.65;3.28;;;;;;;;;;10498162;28;20515;-82
2023/05/12 09:24:58;;;;;;;4.78;3.40;;;;;;;;;;10491439;28;20036;-83
2023/05/12 09:29:59;;;;;;;3.97;3.42;;;;;;;;;;10495239;28;20039;-83
2023/05/12 09:35:41;;;;;;;3.03;2.72;;;;;;;;;;10492866;28;20078;-83
2023/05/12 09:41:14;;;;;;;4.60;3.03;;;;;;;;;;10511382;28;20036;-83
2023/05/12 09:46:17;;;;;;;3.58;2.97;;;;;;;;;;10493242;28;20033;-83
2023/05/12 09:51:51;;;;;;;4.40;3.70;;;;;;;;;;10496655;28;20056;-83
2023/05/12 09:57:07;;;;;;;4.47;3.67;;;;;;;;;;10494689;28;20096;-83
2023/05/12 10:02:17;;;;;;;4.82;3.90;;;;;;;;;;10493046;28;20036;-83
2023/05/12 10:07:22;;;;;;;4.45;3.42;;;;;;;;;;10494599;28;20033;-83
2023/05/12 10:12:29;;;;;;;4.07;3.58;;;;;;;;;;10512140;28;20080;-84
2023/05/12 10:17:36;;;;;;;5.95;3.65;;;;;;;;;;10510846;28;20040;-83
2023/05/12 10:22:44;;;;;;;4.07;2.67;;;;;;;;;;10493986;28;20027;-83
2023/05/12 10:27:52;;;;;;;6.32;3.50;;;;;;;;;;10495971;28;20390;-84
2023/05/12 10:32:55;;;;;;;4.13;3.20;;;;;;;;;;10494344;28;20125;-83
2023/05/12 10:38:19;;;;;;;3.55;2.88;;;;;;;;;;10509195;28;20020;-83
2023/05/12 10:43:55;;;;;;;4.10;2.80;;;;;;;;;;10498686;28;20037;-83
2023/05/12 10:48:57;;;;;;;3.38;2.97;;;;;;;;;;10501812;28;20029;-84
2023/05/12 10:54:01;;;;;;;3.75;2.50;;;;;;;;;;10496891;28;20024;-84
2023/05/12 10:59:23;;;;;;;2.95;2.50;;;;;;;;;;10519342;28;20059;-83
2023/05/12 11:04:35;;;;;;;5.00;2.63;;;;;;;;;;10498401;28;20032;-84
2023/05/12 11:09:39;;;;;;;5.25;3.03;;;;;;;;;;10501672;28;20487;-84
2023/05/12 11:14:50;;;;;;;5.18;4.07;;;;;;;;;;10507460;28;20498;-82
2023/05/12 11:20:31;;;;;;;3.65;2.60;;;;;;;;;;10527371;28;20020;-82
2023/05/12 11:25:34;;;;;;;3.33;3.03;;;;;;;;;;10529375;28;20039;-84
2023/05/12 11:30:36;;;;;;;3.55;2.53;;;;;;;;;;10516960;28;20024;-83
2023/05/12 11:35:38;;;;;;;4.43;2.78;;;;;;;;;;10497230;28;20075;-85
2023/05/12 11:40:50;;;;;;;7.75;5.22;;;;;;;;;;10520016;28;20033;-83
2023/05/12 11:45:54;;;;;;;3.72;2.78;;;;;;;;;;10485978;28;20336;-82
2023/05/12 11:50:55;;;;;;;4.07;3.60;;;;;;;;;;10501059;28;20027;-84
2023/05/12 11:55:57;;;;;;;8.10;3.65;;;;;;;;;;10501312;28;20028;-83
2023/05/12 12:01:19;;;;;;;3.50;3.20;;;;;;;;;;10500708;28;20094;-86
2023/05/12 12:06:22;;;;;;;4.53;3.75;;;;;;;;;;10521227;28;20050;-84
2023/05/12 12:11:34;;;;;;;5.47;3.80;;;;;;;;;;10503128;28;20029;-85
2023/05/12 12:16:38;;;;;;;7.50;4.35;;;;;;;;;;10501923;28;20042;-84
2023/05/12 12:21:45;;;;;;;5.72;3.83;;;;;;;;;;10511920;28;20029;-83
2023/05/12 12:26:46;;;;;;;4.93;4.22;;;;;;;;;;10498355;28;20059;-83
2023/05/12 12:32:03;;;;;;;4.30;3.03;;;;;;;;;;10511309;28;20394;-83
2023/05/12 12:37:05;;;;;;;4.60;4.00;;;;;;;;;;10494929;28;20025;-83
2023/05/12 12:42:09;;;;;;;12.82;10.60;;;;;;;;;;10498238;28;20443;-83
2023/05/12 12:52:56;;;;;;;7.23;4.10;;;;;;;;;;10518427;28;20074;-84
2023/05/12 12:58:33;;;;;;;5.70;3.80;;;;;;;;;;10496534;28;20033;-84
2023/05/12 13:03:34;;;;;;;4.22;3.45;;;;;;;;;;10495073;28;20021;-84
2023/05/12 13:08:35;;;;;;;6.00;3.78;;;;;;;;;;10495870;28;20040;-84
2023/05/12 13:13:36;;;;;;;4.47;2.83;;;;;;;;;;10497672;28;20029;-84
2023/05/12 13:18:37;;;;;;;4.45;4.03;;;;;;;;;;10497026;28;20025;-84
2023/05/12 13:23:40;;;;;;;5.13;3.60;;;;;;;;;;10503952;28;20020;-84
2023/05/12 13:28:41;;;;;;;12.07;10.88;;;;;;;;;;10494620;28;20505;-84
2023/05/12 13:33:42;;;;;;;5.78;3.90;;;;;;;;;;10495077;28;20020;-85
2023/05/12 13:38:43;;;;;;;4.10;3.10;;;;;;;;;;10494164;28;20123;-85
2023/05/12 13:43:44;;;;;;;4.78;3.38;;;;;;;;;;10494342;28;20407;-85
2023/05/12 13:48:45;;;;;;;5.18;3.58;;;;;;;;;;10511123;28;20052;-82
2023/05/12 13:53:46;;;;;;;4.93;4.20;;;;;;;;;;10511110;28;20035;-83
2023/05/12 13:58:49;;;;;;;6.03;3.70;;;;;;;;;;10492645;28;20386;-84
2023/05/12 14:03:50;;;;;;;5.20;4.25;;;;;;;;;;10491713;28;20028;-84
2023/05/12 14:09:27;;;;;;;7.30;3.60;;;;;;;;;;10493731;28;20024;-84
2023/05/12 14:14:29;;;;;;;5.95;4.28;;;;;;;;;;10508117;28;20032;-84
2023/05/12 14:19:34;;;;;;;8.73;4.35;;;;;;;;;;10502374;28;20071;-84
2023/05/12 14:25:06;;;;;;;5.85;2.90;;;;;;;;;;10501007;28;20090;-84
2023/05/12 14:30:33;;;;;;;5.22;3.10;;;;;;;;;;10501807;28;20052;-87
2023/05/12 14:35:55;;;;;;;4.00;2.92;;;;;;;;;;10518519;28;20033;-85
2023/05/12 14:40:57;;;;;;;4.00;2.92;;;;;;;;;;10497535;28;20078;-87
2023/05/12 14:45:59;;;;;;;3.83;3.08;;;;;;;;;;10512514;28;20450;-84
2023/05/12 14:51:02;;;;;;;4.90;3.10;;;;;;;;;;10494638;28;20425;-84
2023/05/12 14:56:03;;;;;;;6.72;4.28;;;;;;;;;;10496271;28;20089;-84
2023/05/12 15:01:04;;;;;;;4.95;3.97;;;;;;;;;;10499081;28;20033;-84
2023/05/12 15:06:05;;;;;;;5.55;4.15;;;;;;;;;;10495937;28;20078;-84
2023/05/12 15:11:06;;;;;;;5.47;4.97;;;;;;;;;;10511970;28;20020;-84
2023/05/12 15:16:07;;;;;;;5.45;3.97;;;;;;;;;;10521434;28;20021;-82
2023/05/12 15:21:08;;;;;;;5.15;3.92;;;;;;;;;;10506859;28;20036;-84
2023/05/12 15:26:09;;;;;;;8.20;4.20;;;;;;;;;;10502461;28;20029;-83
2023/05/12 15:31:10;;;;;;;5.97;3.88;;;;;;;;;;10501775;28;20055;-83
2023/05/12 15:36:12;;;;;;;5.00;4.50;;;;;;;;;;10504640;28;20032;-83
2023/05/12 15:41:13;;;;;;;4.45;3.90;;;;;;;;;;10503001;28;20028;-84
2023/05/12 15:46:14;;;;;;;5.28;3.90;;;;;;;;;;10497462;28;20443;-83
2023/05/12 15:51:15;;;;;;;4.63;3.60;;;;;;;;;;10499286;28;20036;-84
2023/05/12 15:56:18;;;;;;;5.90;3.97;;;;;;;;;;10499698;28;20202;-84
2023/05/12 16:01:19;;;;;;;6.03;4.15;;;;;;;;;;10502642;28;20033;-84
2023/05/12 16:06:20;;;;;;;3.95;3.55;;;;;;;;;;10525958;28;20023;-83
2023/05/12 16:11:22;;;;;;;4.28;3.55;;;;;;;;;;10496989;28;20071;-83
2023/05/12 16:16:23;;;;;;;4.53;3.50;;;;;;;;;;10495641;28;20024;-84
2023/05/12 16:21:27;;;;;;;5.55;3.95;;;;;;;;;;10498864;28;20174;-84
2023/05/12 16:26:28;;;;;;;6.63;3.88;;;;;;;;;;10504380;28;20066;-83
2023/05/12 16:31:51;;;;;;;5.25;3.90;;;;;;;;;;10509160;28;20070;-85
2023/05/12 16:42:54;;;;;;;3.70;3.40;;;;;;;;;;10530695;28;20017;-85
2023/05/12 16:53:45;;;;;;;4.53;3.55;;;;;;;;;;10529730;28;20448;-85
2023/05/12 17:15:25;;;;;;;4.65;3.50;;;;;;;;;;10530418;28;20036;-84
2023/05/12 17:20:27;;;;;;;4.90;3.80;;;;;;;;;;10530439;28;20060;-84
2023/05/12 17:25:40;;;;;;;11.10;4.15;;;;;;;;;;10509637;28;20025;-85
2023/05/12 17:30:51;;;;;;;4.47;3.53;;;;;;;;;;10531123;28;20039;-85
2023/05/12 17:35:53;;;;;;;7.82;4.10;;;;;;;;;;10506622;28;20117;-85
2023/05/12 17:40:54;;;;;;;8.75;4.10;;;;;;;;;;10500892;28;20027;-85
2023/05/12 17:45:59;;;;;;;3.30;3.00;;;;;;;;;;10511010;28;20487;-85
2023/05/12 17:51:19;;;;;;;4.28;3.58;;;;;;;;;;10512232;28;20020;-85
2023/05/12 17:56:53;;;;;;;3.92;3.47;;;;;;;;;;10517607;28;20021;-85
2023/05/12 18:02:13;;;;;;;4.90;3.78;;;;;;;;;;10554066;22;20052;-81
2023/05/12 18:07:14;;;;;;;4.00;3.15;;;;;;;;;;10504216;28;20078;-82
2023/05/12 18:12:16;;;;;;;4.65;3.58;;;;;;;;;;10523406;28;20055;-82
2023/05/12 18:17:18;;;;;;;4.18;3.78;;;;;;;;;;10504303;28;20025;-82
2023/05/12 18:22:19;;;;;;;4.18;3.70;;;;;;;;;;10506138;28;20017;-82
2023/05/12 18:27:20;;;;;;;4.80;3.72;;;;;;;;;;10506720;28;20056;-82
2023/05/12 18:32:21;;;;;;;4.75;4.15;;;;;;;;;;10525703;28;20025;-82
2023/05/12 18:37:23;;;;;;;3.60;3.30;;;;;;;;;;10521401;28;20052;-81
2023/05/12 18:42:27;;;;;;;4.43;3.60;;;;;;;;;;10534611;28;20028;-81
2023/05/12 18:47:29;;;;;;;3.90;3.50;;;;;;;;;;10521579;28;20024;-82
2023/05/12 18:52:30;;;;;;;4.60;2.97;;;;;;;;;;10522803;28;20028;-82
2023/05/12 18:57:31;;;;;;;4.72;3.40;;;;;;;;;;10508229;28;20033;-82
2023/05/12 19:02:33;;;;;;;3.97;3.35;;;;;;;;;;10511055;28;20040;-83
2023/05/12 19:07:34;;;;;;;3.60;3.30;;;;;;;;;;10510383;28;20021;-83
2023/05/12 19:12:35;;;;;;;5.35;3.80;;;;;;;;;;10512850;28;20082;-82
